Time;durP1;ratioP1;P1;durP2;ratioP2;P2;SDS_P1;SDS_P2;PMS_P1;PMS_P2;Temp;Humidity;BMP_temperature;BMP_pressure;BME280_temperature;BME280_humidity;BME280_pressure;Samples;Min_cycle;Max_cycle;Signal;HPM_P1;HPM_P2
2024/01/03 00:01:42;;;;;;;7.33;1.57;;;;;;;5.34;100.00;95219.66;5127269;27;20495;-53
2024/01/03 00:04:23;;;;;;;1.10;0.97;;;;;;;5.47;100.00;95193.03;5132072;27;20470;-53
2024/01/03 00:06:52;;;;;;;2.30;0.90;;;;;;;5.73;100.00;95193.19;5132163;27;20788;-53
2024/01/03 00:09:24;;;;;;;2.67;1.57;;;;;;;5.62;100.00;95190.63;5132011;27;20438;-53
2024/01/03 00:11:53;;;;;;;1.10;1.10;;;;;;;5.57;100.00;95154.56;5132385;27;20462;-53
2024/01/03 00:14:29;;;;;;;1.20;1.20;;;;;;;5.78;100.00;95185.38;5132653;27;20437;-53
2024/01/03 00:17:02;;;;;;;0.80;0.77;;;;;;;5.60;100.00;95187.44;5131552;28;20434;-53
2024/01/03 00:19:30;;;;;;;3.30;1.50;;;;;;;5.38;100.00;95189.22;5131657;27;20495;-53
2024/01/03 00:21:59;;;;;;;2.37;2.27;;;;;;;5.60;100.00;95182.19;5131460;27;20427;-53
2024/01/03 00:24:30;;;;;;;0.90;0.90;;;;;;;5.76;100.00;95191.91;5131750;28;20470;-53
2024/01/03 00:26:58;;;;;;;1.70;1.60;;;;;;;5.85;99.19;95193.09;5132022;28;20437;-53
2024/01/03 00:29:51;;;;;;;8.53;1.03;;;;;;;5.99;96.55;95196.19;5131956;27;20495;-53
2024/01/03 00:32:22;;;;;;;3.63;2.37;;;;;;;5.72;100.00;95178.44;5103776;28;20496;-53
2024/01/03 00:34:54;;;;;;;2.83;2.73;;;;;;;5.14;97.94;95112.41;5131866;28;20487;-53
2024/01/03 00:37:31;;;;;;;1.60;1.50;;;;;;;5.64;98.03;95191.22;5132532;27;20434;-53
2024/01/03 00:40:04;;;;;;;1.00;1.00;;;;;;;5.74;98.53;95193.97;5130507;28;20969;-52
2024/01/03 00:42:32;;;;;;;12.00;2.40;;;;;;;5.46;98.13;95188.84;5132627;27;20442;-52
2024/01/03 00:45:01;;;;;;;1.10;1.00;;;;;;;5.60;99.74;95187.44;5109747;27;20477;-52
2024/01/03 00:47:30;;;;;;;2.10;2.00;;;;;;;5.63;100.00;95173.84;5121568;27;20435;-52
2024/01/03 00:49:59;;;;;;;1.33;1.33;;;;;;;5.74;100.00;95178.22;5136537;27;20457;-52
2024/01/03 00:52:28;;;;;;;8.03;2.80;;;;;;;5.18;100.00;95139.00;5134977;27;20477;-52
2024/01/03 00:54:56;;;;;;;1.63;1.40;;;;;;;5.57;100.00;95165.06;5136401;27;20434;-52
2024/01/03 00:57:26;;;;;;;3.13;2.27;;;;;;;5.11;100.00;95178.53;5135691;27;20521;-52
2024/01/03 00:59:55;;;;;;;1.43;1.33;;;;;;;5.33;100.00;95155.78;5136237;27;20438;-53
2024/01/03 01:02:24;;;;;;;1.60;1.50;;;;;;;5.29;100.00;95170.44;5135826;27;20438;-52
2024/01/03 01:04:52;;;;;;;3.80;1.07;;;;;;;5.28;100.00;95173.31;5136114;27;20489;-52
2024/01/03 01:07:21;;;;;;;2.13;1.00;;;;;;;5.50;100.00;95166.28;5135677;27;20462;-53
2024/01/03 01:09:50;;;;;;;2.53;1.17;;;;;;;5.63;100.00;95152.81;5135820;27;20465;-53
2024/01/03 01:12:20;;;;;;;1.53;1.23;;;;;;;5.06;100.00;95116.22;5135566;27;20434;-52
2024/01/03 01:14:51;;;;;;;1.53;1.37;;;;;;;5.07;100.00;95162.47;5135795;27;20438;-53
2024/01/03 01:17:19;;;;;;;7.97;2.10;;;;;;;5.43;100.00;95160.41;5135221;27;20796;-52
2024/01/03 01:19:48;;;;;;;2.87;2.20;;;;;;;4.29;100.00;95080.28;5135695;27;20456;-52
2024/01/03 01:22:17;;;;;;;3.50;3.20;;;;;;;4.80;100.00;95119.50;5109348;27;20499;-53
2024/01/03 01:24:45;;;;;;;8.33;2.00;;;;;;;5.24;100.00;95159.06;5135410;27;20466;-53
2024/01/03 01:27:14;;;;;;;2.63;2.40;;;;;;;5.11;100.00;95113.69;5135567;27;21018;-53
2024/01/03 01:29:43;;;;;;;2.80;2.27;;;;;;;5.51;100.00;95152.91;5135039;27;20954;-53
2024/01/03 01:32:13;;;;;;;8.93;1.47;;;;;;;5.48;100.00;95158.66;5135312;27;20435;-53
2024/01/03 01:34:42;;;;;;;7.87;1.67;;;;;;;5.78;100.00;95155.63;5135352;27;20446;-53
2024/01/03 01:37:11;;;;;;;1.30;1.20;;;;;;;5.74;100.00;95152.69;5135339;27;20430;-53
2024/01/03 01:39:40;;;;;;;19.73;1.80;;;;;;;5.44;100.00;95152.25;5135248;27;20435;-53
2024/01/03 01:42:08;;;;;;;1.30;1.20;;;;;;;5.65;100.00;95163.88;5135112;27;20430;-53
2024/01/03 01:44:37;;;;;;;1.17;1.07;;;;;;;5.75;100.00;95158.75;5134463;27;20509;-54
2024/01/03 01:47:09;;;;;;;1.93;1.40;;;;;;;5.66;99.13;95129.47;5135250;27;20435;-54
2024/01/03 01:49:40;;;;;;;5.30;2.10;;;;;;;5.29;97.81;95070.59;5135188;27;20438;-52
2024/01/03 01:52:10;;;;;;;1.33;1.33;;;;;;;5.77;100.00;95125.09;5134341;27;20462;-52
2024/01/03 01:54:40;;;;;;;5.10;1.53;;;;;;;5.52;100.00;95151.06;5134241;27;20470;-52
2024/01/03 01:57:10;;;;;;;4.60;1.47;;;;;;;5.47;100.00;95154.41;5134724;27;20806;-52
2024/01/03 01:59:41;;;;;;;2.77;1.93;;;;;;;5.30;100.00;95144.97;5134673;27;20938;-53
2024/01/03 02:02:10;;;;;;;1.87;1.30;;;;;;;4.76;100.00;95131.50;5134781;27;20582;-53
2024/01/03 02:04:41;;;;;;;2.17;2.07;;;;;;;4.68;100.00;95142.38;5134847;27;20430;-53
2024/01/03 02:07:10;;;;;;;1.53;1.03;;;;;;;5.06;100.00;95141.69;5134057;27;20926;-53
2024/01/03 02:09:38;;;;;;;5.50;2.50;;;;;;;5.01;100.00;95131.09;5134509;27;20464;-53
2024/01/03 02:12:07;;;;;;;2.23;1.47;;;;;;;5.01;100.00;95131.91;5134554;27;20514;-53
2024/01/03 02:14:36;;;;;;;2.43;2.33;;;;;;;4.89;100.00;95133.00;5134694;27;20522;-53
2024/01/03 02:17:05;;;;;;;4.77;2.03;;;;;;;4.26;100.00;95078.13;5134063;27;20488;-53
2024/01/03 02:19:34;;;;;;;5.10;3.23;;;;;;;4.39;100.00;95135.56;5134617;27;20442;-53
2024/01/03 02:22:04;;;;;;;2.90;2.70;;;;;;;4.33;100.00;95126.81;5133771;27;20437;-53
2024/01/03 02:24:32;;;;;;;5.33;2.77;;;;;;;4.35;100.00;95131.84;5134067;27;20434;-53
2024/01/03 02:27:01;;;;;;;7.73;2.53;;;;;;;4.36;100.00;95131.59;5133348;27;20525;-53
2024/01/03 02:29:30;;;;;;;2.60;2.33;;;;;;;4.21;100.00;95138.38;5133689;27;20438;-53
2024/01/03 02:31:58;;;;;;;5.13;2.40;;;;;;;4.25;100.00;95116.69;5133940;27;20886;-53
2024/01/03 02:34:28;;;;;;;2.43;2.23;;;;;;;4.25;100.00;95108.81;5134060;27;20446;-53
2024/01/03 02:36:57;;;;;;;2.27;2.17;;;;;;;4.34;100.00;95125.78;5133955;27;20438;-53
2024/01/03 02:39:27;;;;;;;2.93;1.97;;;;;;;4.37;100.00;95124.53;5133097;27;20442;-53
2024/01/03 02:41:56;;;;;;;11.10;3.83;;;;;;;4.01;100.00;95117.81;5133223;27;20483;-53
2024/01/03 02:44:27;;;;;;;1.10;1.10;;;;;;;4.15;100.00;95110.47;5133380;27;20492;-53
2024/01/03 02:46:56;;;;;;;2.43;1.90;;;;;;;2.69;100.00;94969.44;5133799;27;20830;-53
2024/01/03 02:49:25;;;;;;;6.03;1.50;;;;;;;4.17;100.00;95106.59;5133646;27;20442;-53
2024/01/03 02:51:54;;;;;;;1.77;1.17;;;;;;;4.37;100.00;95103.53;5133718;27;20466;-53
2024/01/03 02:54:22;;;;;;;2.30;2.10;;;;;;;4.09;100.00;95106.16;5133403;27;20953;-53
2024/01/03 02:56:53;;;;;;;4.20;1.50;;;;;;;4.10;100.00;95099.91;5133635;27;20926;-53
2024/01/03 02:59:22;;;;;;;1.93;1.83;;;;;;;3.81;100.00;95099.06;5133595;27;20434;-53
2024/01/03 03:01:51;;;;;;;1.23;1.07;;;;;;;3.90;100.00;95117.84;5133339;27;20466;-53
2024/01/03 03:04:20;;;;;;;1.60;1.50;;;;;;;4.09;100.00;95098.28;5132525;27;20443;-53
2024/01/03 03:06:48;;;;;;;1.57;1.47;;;;;;;4.10;100.00;95089.41;5133233;27;20470;-53
2024/01/03 03:09:17;;;;;;;4.73;1.77;;;;;;;4.08;100.00;95091.44;5106816;27;20434;-53
2024/01/03 03:11:46;;;;;;;2.50;2.00;;;;;;;3.99;100.00;95090.22;5119556;27;20466;-53
2024/01/03 03:14:17;;;;;;;1.73;1.60;;;;;;;3.71;100.00;95034.13;5133789;27;20438;-53
2024/01/03 03:16:45;;;;;;;1.43;1.33;;;;;;;4.11;100.00;95111.97;5133026;27;20447;-53
2024/01/03 03:19:14;;;;;;;1.70;1.60;;;;;;;3.11;100.00;94962.22;5133334;27;20438;-53
2024/01/03 03:21:43;;;;;;;6.60;2.70;;;;;;;4.17;100.00;95109.22;5133260;27;20435;-53
2024/01/03 03:24:11;;;;;;;2.60;1.53;;;;;;;4.30;100.00;95119.41;5133096;27;20441;-53
2024/01/03 03:26:40;;;;;;;2.20;2.10;;;;;;;3.74;100.00;95090.53;5132840;27;20879;-53
2024/01/03 03:29:09;;;;;;;1.40;1.30;;;;;;;4.15;100.00;95128.84;5133055;27;20934;-53
2024/01/03 03:31:39;;;;;;;5.43;2.37;;;;;;;4.23;100.00;95126.63;5132885;27;20518;-53
2024/01/03 03:34:07;;;;;;;3.27;2.10;;;;;;;4.02;100.00;95131.72;5132840;27;20473;-53
2024/01/03 03:36:36;;;;;;;1.43;1.33;;;;;;;4.05;100.00;95105.03;5132029;27;20434;-53
2024/01/03 03:39:07;;;;;;;1.83;1.23;;;;;;;4.21;100.00;95125.25;5132826;27;20457;-53
2024/01/03 03:41:36;;;;;;;3.00;2.77;;;;;;;3.89;100.00;95124.13;5105421;27;20447;-53
2024/01/03 03:44:06;;;;;;;1.60;1.50;;;;;;;3.90;100.00;95097.66;5133064;27;20832;-53
2024/01/03 03:46:34;;;;;;;12.20;2.77;;;;;;;4.03;100.00;95096.59;5132223;27;20564;-53
2024/01/03 03:49:04;;;;;;;6.20;3.77;;;;;;;3.60;100.00;95028.91;5132800;27;20502;-53
2024/01/03 03:51:33;;;;;;;4.80;2.90;;;;;;;4.19;100.00;95101.09;5132176;27;20529;-54
2024/01/03 03:54:01;;;;;;;2.17;2.07;;;;;;;4.15;100.00;95094.75;5132331;27;20443;-54
2024/01/03 03:56:30;;;;;;;5.83;3.93;;;;;;;4.26;100.00;95078.13;5132508;27;20442;-53
2024/01/03 03:58:59;;;;;;;4.63;2.70;;;;;;;3.86;100.00;95096.53;5132229;27;20434;-53
2024/01/03 04:01:28;;;;;;;8.20;2.83;;;;;;;3.95;100.00;95081.25;5132451;27;20470;-53
2024/01/03 04:03:56;;;;;;;4.33;3.93;;;;;;;4.12;100.00;95087.34;5131560;27;20446;-53
2024/01/03 04:06:44;;;;;;;10.53;2.90;;;;;;;3.97;100.00;95084.44;5132204;27;20465;-53
2024/01/03 04:09:12;;;;;;;3.90;2.97;;;;;;;4.16;100.00;95067.47;5131670;27;20434;-53
2024/01/03 04:11:42;;;;;;;9.53;3.50;;;;;;;4.45;100.00;95071.66;5131696;27;20966;-55
2024/01/03 04:14:11;;;;;;;9.93;4.83;;;;;;;4.41;100.00;95066.09;5131785;27;20441;-53
2024/01/03 04:16:40;;;;;;;13.53;3.83;;;;;;;4.21;100.00;95083.28;5131083;27;20450;-53
2024/01/03 04:19:08;;;;;;;10.70;5.27;;;;;;;3.59;100.00;95085.78;5131607;27;20446;-53
2024/01/03 04:21:37;;;;;;;4.80;4.50;;;;;;;2.75;100.00;95098.56;5131009;27;20442;-52
2024/01/03 04:24:08;;;;;;;7.10;3.90;;;;;;;2.36;100.00;95099.94;5132183;27;21023;-53
2024/01/03 04:26:36;;;;;;;4.30;1.40;;;;;;;2.83;100.00;95091.19;5131445;28;20505;-52
2024/01/03 04:29:05;;;;;;;2.57;2.37;;;;;;;3.06;100.00;95072.84;5131328;28;20442;-53
2024/01/03 04:31:33;;;;;;;3.90;1.90;;;;;;;3.32;100.00;95078.63;5131462;27;20433;-54
2024/01/03 04:34:02;;;;;;;1.23;0.90;;;;;;;3.53;100.00;95064.94;5131811;27;20998;-53
2024/01/03 04:36:31;;;;;;;1.00;0.90;;;;;;;3.48;100.00;95070.09;5131265;27;20907;-53
2024/01/03 04:39:00;;;;;;;4.50;1.43;;;;;;;3.61;100.00;95075.88;5131273;27;20457;-52
2024/01/03 04:41:31;;;;;;;4.60;3.17;;;;;;;3.37;100.00;95076.94;5130388;28;20911;-54
2024/01/03 04:43:59;;;;;;;2.67;2.50;;;;;;;3.37;100.00;95066.44;5131773;28;20810;-54
2024/01/03 04:46:28;;;;;;;1.53;1.43;;;;;;;3.59;100.00;95077.91;5131493;28;20558;-54
2024/01/03 04:48:57;;;;;;;1.60;0.83;;;;;;;3.19;100.00;95024.69;5131977;27;20426;-54
2024/01/03 04:51:25;;;;;;;2.00;0.80;;;;;;;3.82;100.00;95082.28;5130831;28;20438;-54
2024/01/03 04:53:54;;;;;;;1.23;1.13;;;;;;;3.66;100.00;95075.97;5131789;28;20442;-54
2024/01/03 04:56:24;;;;;;;6.10;1.20;;;;;;;3.65;100.00;95094.53;5131649;28;21124;-52
2024/01/03 04:58:55;;;;;;;1.70;0.77;;;;;;;3.78;100.00;95097.69;5131672;28;20446;-54
2024/01/03 05:01:23;;;;;;;0.90;0.90;;;;;;;3.62;100.00;95089.75;5131760;28;20448;-53
2024/01/03 05:03:52;;;;;;;0.97;0.80;;;;;;;3.87;100.00;95086.84;5131493;27;20438;-54
2024/01/03 05:06:20;;;;;;;2.30;2.20;;;;;;;3.81;100.00;95076.28;5131803;28;20467;-54
2024/01/03 05:08:49;;;;;;;2.20;1.60;;;;;;;3.88;100.00;95091.06;5131612;27;20434;-53
2024/01/03 05:11:18;;;;;;;2.03;1.93;;;;;;;3.99;100.00;95079.75;5132000;28;20438;-54
2024/01/03 05:13:46;;;;;;;2.07;1.90;;;;;;;3.96;100.00;95090.69;5131393;27;20499;-54
2024/01/03 05:16:17;;;;;;;3.53;3.23;;;;;;;4.03;100.00;95080.84;5131907;27;20434;-54
2024/01/03 05:18:45;;;;;;;1.53;1.43;;;;;;;4.01;100.00;95072.44;5131403;27;20434;-54
2024/01/03 05:21:14;;;;;;;2.90;1.43;;;;;;;3.90;100.00;95075.91;5131799;28;20450;-53
2024/01/03 05:23:43;;;;;;;3.63;3.43;;;;;;;3.99;100.00;95074.50;5130899;27;20941;-54
2024/01/03 05:26:13;;;;;;;7.47;2.07;;;;;;;4.15;100.00;95053.56;5131156;28;21039;-53
2024/01/03 05:28:42;;;;;;;1.77;1.03;;;;;;;3.90;100.00;95011.16;5117712;27;20438;-53
2024/01/03 05:31:11;;;;;;;1.97;1.50;;;;;;;4.46;100.00;95053.06;5134411;27;20441;-53
2024/01/03 05:33:41;;;;;;;1.13;1.07;;;;;;;4.31;100.00;95057.25;5134711;27;20431;-54
2024/01/03 05:36:10;;;;;;;1.77;1.33;;;;;;;4.43;100.00;95071.09;5134700;27;20465;-53
2024/01/03 05:38:39;;;;;;;1.53;1.40;;;;;;;3.81;100.00;95073.66;5135155;27;20487;-53
2024/01/03 05:41:08;;;;;;;3.90;1.37;;;;;;;3.62;100.00;95037.34;5134934;27;20461;-53
2024/01/03 05:43:37;;;;;;;2.10;0.70;;;;;;;3.88;100.00;95070.88;5134129;27;20430;-53
2024/01/03 05:46:06;;;;;;;2.27;2.07;;;;;;;3.41;100.00;95066.78;5134883;27;20816;-53
2024/01/03 05:48:35;;;;;;;1.67;1.13;;;;;;;3.65;100.00;95076.19;5134648;27;20474;-53
2024/01/03 05:51:10;;;;;;;2.33;1.77;;;;;;;3.80;100.00;95098.25;5134542;27;20518;-54
2024/01/03 05:53:39;;;;;;;2.53;2.20;;;;;;;3.67;100.00;95087.22;5134496;27;20474;-54
2024/01/03 05:56:09;;;;;;;4.83;2.20;;;;;;;3.61;100.00;95082.94;5134489;27;20517;-53
2024/01/03 05:58:37;;;;;;;13.07;3.70;;;;;;;3.81;100.00;95099.88;5134698;27;20431;-54
2024/01/03 06:01:10;;;;;;;12.53;2.30;;;;;;;4.05;100.00;95105.03;5126691;27;20438;-53
2024/01/03 06:03:38;;;;;;;3.53;1.83;;;;;;;3.80;100.00;95093.00;5127935;27;20434;-53
2024/01/03 06:06:07;;;;;;;2.43;1.43;;;;;;;4.09;100.00;95108.78;5134726;27;20435;-54
2024/01/03 06:08:37;;;;;;;1.23;1.13;;;;;;;4.32;100.00;95106.06;5134320;27;20470;-53
2024/01/03 06:11:08;;;;;;;1.50;1.40;;;;;;;4.39;100.00;95101.47;5134706;27;20469;-53
2024/01/03 06:13:37;;;;;;;2.93;1.10;;;;;;;4.69;100.00;95099.34;5134184;27;20534;-53
2024/01/03 06:16:06;;;;;;;4.83;3.87;;;;;;;4.05;100.00;95123.41;5134688;27;20439;-53
2024/01/03 06:18:35;;;;;;;0.90;0.90;;;;;;;4.25;100.00;95115.91;5134054;27;20824;-53
2024/01/03 06:21:04;;;;;;;1.23;1.13;;;;;;;4.25;100.00;95142.13;5134350;27;20446;-54
2024/01/03 06:23:35;;;;;;;11.80;3.00;;;;;;;4.29;100.00;95154.56;5133753;27;20449;-54
2024/01/03 06:26:07;;;;;;;14.50;2.63;;;;;;;4.64;100.00;95145.72;5133620;27;21006;-53
2024/01/03 06:28:35;;;;;;;3.47;3.27;;;;;;;4.62;100.00;95143.34;5133593;27;20482;-54
2024/01/03 06:31:04;;;;;;;5.23;3.10;;;;;;;4.69;100.00;95143.97;5134317;27;20438;-53
2024/01/03 06:33:33;;;;;;;5.73;3.33;;;;;;;4.52;100.00;95132.66;5134080;27;20495;-53
2024/01/03 06:36:02;;;;;;;7.80;3.80;;;;;;;4.75;100.00;95129.13;5133896;27;20449;-53
2024/01/03 06:38:30;;;;;;;4.70;4.50;;;;;;;4.48;100.00;95137.56;5133903;27;20442;-54
2024/01/03 06:40:59;;;;;;;7.40;3.43;;;;;;;4.55;100.00;95128.78;5132324;27;20827;-54
2024/01/03 06:43:28;;;;;;;3.63;2.87;;;;;;;4.75;100.00;95137.78;5133861;27;20439;-54
2024/01/03 06:45:57;;;;;;;3.73;2.23;;;;;;;4.83;100.00;95134.75;5133733;27;21004;-53
2024/01/03 06:48:26;;;;;;;3.80;3.50;;;;;;;4.85;100.00;95142.41;5133607;27;20473;-52
2024/01/03 06:50:55;;;;;;;4.33;3.93;;;;;;;4.87;100.00;95135.91;5132916;27;20437;-53
2024/01/03 06:53:24;;;;;;;5.33;3.67;;;;;;;5.05;100.00;95140.91;5133022;27;20997;-53
2024/01/03 06:55:52;;;;;;;10.17;6.37;;;;;;;4.97;100.00;95122.91;5133857;27;20462;-54
2024/01/03 06:58:22;;;;;;;6.30;3.63;;;;;;;4.77;100.00;95070.09;5133740;27;20434;-53
2024/01/03 07:00:52;;;;;;;8.00;4.50;;;;;;;4.62;100.00;95084.78;5133932;27;20451;-53
2024/01/03 07:03:20;;;;;;;5.27;4.73;;;;;;;5.02;100.00;95116.94;5133280;27;20437;-53
2024/01/03 07:05:49;;;;;;;16.83;8.60;;;;;;;4.66;100.00;95106.91;5133373;27;20464;-54
2024/01/03 07:08:18;;;;;;;10.83;6.13;;;;;;;4.78;100.00;95120.78;5133216;27;20519;-53
2024/01/03 07:10:47;;;;;;;8.60;5.40;;;;;;;4.55;100.00;95115.66;5133537;27;20461;-53
2024/01/03 07:13:15;;;;;;;5.47;4.10;;;;;;;4.42;100.00;95132.47;5133379;27;20953;-53
2024/01/03 07:15:44;;;;;;;13.87;4.00;;;;;;;3.98;100.00;95123.50;5133489;27;20442;-53
2024/01/03 07:18:14;;;;;;;3.10;2.87;;;;;;;3.55;100.00;95123.94;5133253;27;20453;-53
2024/01/03 07:20:43;;;;;;;15.57;3.50;;;;;;;3.47;100.00;95128.72;5133292;27;20438;-54
2024/01/03 07:23:12;;;;;;;2.03;1.93;;;;;;;3.79;100.00;95128.09;5132882;27;20449;-54
2024/01/03 07:25:41;;;;;;;2.13;2.00;;;;;;;3.55;100.00;95104.81;5133035;27;20499;-54
2024/01/03 07:28:10;;;;;;;1.00;1.00;;;;;;;3.80;100.00;95124.47;5132621;27;20846;-54
2024/01/03 07:30:39;;;;;;;6.60;1.43;;;;;;;3.79;100.00;95115.00;5132907;27;20487;-54
2024/01/03 07:33:07;;;;;;;2.60;0.43;;;;;;;4.04;100.00;95108.69;5132887;27;20442;-53
2024/01/03 07:35:39;;;;;;;2.07;1.97;;;;;;;4.29;100.00;95104.72;5132830;27;20442;-53
2024/01/03 07:38:09;;;;;;;0.93;0.80;;;;;;;4.23;100.00;95103.00;5132920;27;20491;-53
2024/01/03 07:40:38;;;;;;;2.20;2.10;;;;;;;4.44;100.00;95098.94;5132787;27;20444;-52
2024/01/03 07:43:06;;;;;;;3.43;2.20;;;;;;;4.46;100.00;95096.84;5132085;27;20485;-54
2024/01/03 07:45:35;;;;;;;1.00;0.70;;;;;;;4.62;100.00;95088.22;5133054;27;20434;-54
2024/01/03 07:48:04;;;;;;;3.00;1.00;;;;;;;4.33;100.00;95032.34;5132442;27;20497;-54
2024/01/03 07:50:32;;;;;;;2.57;2.33;;;;;;;4.83;100.00;95098.00;5132755;27;20928;-54
2024/01/03 07:53:05;;;;;;;1.30;1.20;;;;;;;4.76;100.00;95080.81;5105095;27;20466;-54
2024/01/03 07:55:34;;;;;;;3.57;2.57;;;;;;;4.89;100.00;95078.69;5132452;27;20488;-54
2024/01/03 07:58:02;;;;;;;2.37;2.20;;;;;;;4.93;100.00;95095.53;5132536;27;20469;-53
2024/01/03 08:00:31;;;;;;;17.63;1.97;;;;;;;4.98;100.00;95084.34;5121007;27;20443;-54
2024/01/03 08:03:00;;;;;;;3.10;1.40;;;;;;;5.24;100.00;95088.91;5132772;27;20471;-54
2024/01/03 08:05:28;;;;;;;3.27;1.07;;;;;;;5.53;100.00;95097.47;5131832;27;20438;-54
2024/01/03 08:07:57;;;;;;;0.73;0.73;;;;;;;5.82;100.00;95090.97;5127947;27;20462;-54
2024/01/03 08:10:27;;;;;;;9.57;2.97;;;;;;;5.67;100.00;95098.69;5122189;27;20518;-54
2024/01/03 08:12:55;;;;;;;3.30;3.20;;;;;;;5.39;100.00;95093.59;5132713;27;20494;-54
2024/01/03 08:15:24;;;;;;;3.17;2.27;;;;;;;5.52;100.00;95116.88;5128868;27;20466;-55
2024/01/03 08:17:52;;;;;;;1.40;1.30;;;;;;;5.73;100.00;95114.31;5113583;28;20446;-55
2024/01/03 08:20:21;;;;;;;4.43;2.37;;;;;;;5.74;100.00;95112.47;5125522;28;20427;-55
2024/01/03 08:22:51;;;;;;;5.57;4.50;;;;;;;5.42;100.00;95114.13;5112300;28;20434;-53
2024/01/03 08:25:20;;;;;;;2.60;2.40;;;;;;;5.56;100.00;95099.59;5116021;28;20437;-55
2024/01/03 08:27:50;;;;;;;2.40;2.20;;;;;;;5.40;100.00;95103.06;5120317;28;20439;-54
2024/01/03 08:30:18;;;;;;;3.00;2.77;;;;;;;5.54;100.00;95114.84;5130172;28;20487;-54
2024/01/03 08:32:47;;;;;;;5.43;2.60;;;;;;;5.70;100.00;95106.09;5132190;28;20445;-54
2024/01/03 08:35:16;;;;;;;5.77;2.40;;;;;;;5.69;100.00;95086.13;5131669;27;20430;-55
2024/01/03 08:37:45;;;;;;;7.33;5.27;;;;;;;5.46;100.00;95076.63;5131659;27;20449;-55
2024/01/03 08:40:13;;;;;;;2.10;1.93;;;;;;;6.09;100.00;95086.63;5105536;28;20478;-55
2024/01/03 08:42:42;;;;;;;2.47;2.37;;;;;;;6.32;100.00;95096.06;5131748;27;20435;-55
2024/01/03 08:45:12;;;;;;;1.93;1.37;;;;;;;6.25;100.00;95085.72;5131521;27;20426;-55
2024/01/03 08:47:41;;;;;;;1.80;1.50;;;;;;;6.72;100.00;95095.66;5131404;27;20434;-55
2024/01/03 08:50:10;;;;;;;1.90;1.77;;;;;;;6.90;100.00;95090.03;5131158;28;20485;-55
2024/01/03 08:52:39;;;;;;;2.33;2.23;;;;;;;6.69;100.00;95077.72;5130804;28;20481;-55
2024/01/03 08:55:08;;;;;;;1.40;1.30;;;;;;;7.01;99.82;95063.50;5132079;27;20441;-55
2024/01/03 08:57:37;;;;;;;4.13;3.80;;;;;;;7.29;97.63;95065.00;5132125;27;20434;-55
2024/01/03 09:00:07;;;;;;;4.40;2.50;;;;;;;7.12;95.96;95053.81;5132137;27;20448;-55
2024/01/03 09:02:37;;;;;;;3.87;2.60;;;;;;;6.71;98.32;95004.53;5131805;28;20441;-55
2024/01/03 09:05:07;;;;;;;18.13;3.60;;;;;;;7.30;96.05;95082.41;5134486;27;20462;-55
2024/01/03 09:07:36;;;;;;;2.33;2.13;;;;;;;7.29;96.98;95066.81;5136021;27;20487;-55
2024/01/03 09:10:06;;;;;;;5.23;3.40;;;;;;;7.15;97.56;95057.78;5135914;27;20480;-55
2024/01/03 09:12:35;;;;;;;5.83;1.87;;;;;;;7.11;100.00;95068.03;5109747;27;20438;-55
2024/01/03 09:15:04;;;;;;;7.57;5.50;;;;;;;7.17;97.78;95064.41;5136102;27;20442;-55
2024/01/03 09:17:33;;;;;;;10.90;3.63;;;;;;;6.86;99.48;95054.69;5135936;27;20904;-56
2024/01/03 09:20:03;;;;;;;11.83;6.33;;;;;;;6.82;100.00;95066.78;5135338;27;20979;-55
2024/01/03 09:22:32;;;;;;;10.50;6.53;;;;;;;6.83;100.00;95060.47;5135685;27;20450;-55
2024/01/03 09:25:00;;;;;;;5.33;4.87;;;;;;;6.29;100.00;95071.03;5135146;27;20470;-54
2024/01/03 09:27:29;;;;;;;5.20;4.80;;;;;;;6.55;100.00;95064.19;5135501;27;20847;-55
2024/01/03 09:29:57;;;;;;;8.17;5.17;;;;;;;6.82;100.00;95069.41;5135260;27;20481;-55
2024/01/03 09:32:26;;;;;;;5.43;4.40;;;;;;;6.91;100.00;95054.72;5135353;27;20462;-55
2024/01/03 09:34:55;;;;;;;4.67;3.33;;;;;;;7.10;99.96;95063.03;5134809;27;20908;-55
2024/01/03 09:37:25;;;;;;;8.70;7.13;;;;;;;7.33;96.73;95050.28;5134960;27;20523;-55
2024/01/03 09:39:54;;;;;;;3.33;2.97;;;;;;;7.15;97.00;95049.88;5135153;27;20834;-55
2024/01/03 09:42:23;;;;;;;2.63;2.43;;;;;;;7.14;100.00;95057.00;5135105;27;20470;-55
2024/01/03 09:44:53;;;;;;;8.63;5.60;;;;;;;7.09;99.80;95054.31;5134596;27;20431;-55
2024/01/03 09:47:21;;;;;;;8.47;4.67;;;;;;;6.79;100.00;95065.44;5134981;27;20952;-55
2024/01/03 09:49:50;;;;;;;24.03;6.30;;;;;;;7.06;100.00;95054.81;5134854;27;20481;-55
2024/01/03 09:52:20;;;;;;;19.93;10.90;;;;;;;6.54;100.00;95052.06;5134186;27;20482;-55
2024/01/03 09:54:51;;;;;;;7.50;6.80;;;;;;;5.92;100.00;95072.72;5134998;27;20446;-55
2024/01/03 09:57:20;;;;;;;10.77;5.10;;;;;;;6.29;100.00;95042.09;5134714;27;20517;-55
2024/01/03 09:59:49;;;;;;;6.10;4.43;;;;;;;6.64;100.00;95044.25;5126511;27;20523;-54
2024/01/03 10:02:18;;;;;;;3.93;2.77;;;;;;;6.72;100.00;95054.31;5134790;27;20442;-55
2024/01/03 10:04:47;;;;;;;3.57;3.30;;;;;;;6.75;100.00;95029.31;5134308;27;20434;-55
2024/01/03 10:07:16;;;;;;;5.00;2.43;;;;;;;6.90;100.00;95058.41;5134858;27;20507;-55
2024/01/03 10:09:45;;;;;;;4.50;3.87;;;;;;;6.39;100.00;95015.88;5134948;27;20482;-55
2024/01/03 10:12:19;;;;;;;6.63;3.33;;;;;;;6.47;100.00;95035.69;5134242;27;20546;-55
2024/01/03 10:14:49;;;;;;;2.30;2.20;;;;;;;6.52;100.00;95030.47;5133957;27;20566;-55
2024/01/03 10:17:18;;;;;;;11.07;1.50;;;;;;;6.62;100.00;95012.09;5133736;27;20446;-55
2024/01/03 10:19:47;;;;;;;3.07;2.50;;;;;;;6.84;100.00;95025.16;5134193;27;20476;-56
2024/01/03 10:22:20;;;;;;;5.27;4.43;;;;;;;6.44;100.00;94998.53;5133682;27;20439;-55
2024/01/03 10:24:48;;;;;;;2.30;1.43;;;;;;;6.60;100.00;94995.78;5133711;27;20442;-54
2024/01/03 10:27:19;;;;;;;28.37;6.17;;;;;;;6.45;100.00;95008.81;5134095;27;20434;-55
2024/01/03 10:29:48;;;;;;;3.90;2.57;;;;;;;6.88;100.00;94999.91;5133181;27;20466;-55
2024/01/03 10:32:19;;;;;;;2.53;2.17;;;;;;;7.10;100.00;95005.84;5134393;27;20465;-55
2024/01/03 10:34:48;;;;;;;1.50;1.40;;;;;;;7.07;100.00;94993.19;5130697;27;20453;-55
2024/01/03 10:37:17;;;;;;;3.50;2.57;;;;;;;6.59;100.00;94956.50;5127876;27;20926;-55
2024/01/03 10:39:50;;;;;;;2.43;2.27;;;;;;;6.33;100.00;94919.47;5133216;27;20854;-56
2024/01/03 10:42:22;;;;;;;6.07;4.27;;;;;;;6.35;100.00;94954.22;5132506;27;20443;-55
2024/01/03 10:44:52;;;;;;;11.23;5.00;;;;;;;5.92;100.00;94938.59;5133098;27;20441;-55
2024/01/03 10:47:21;;;;;;;1.93;1.83;;;;;;;5.99;100.00;94864.75;5133631;27;20442;-55
2024/01/03 10:49:50;;;;;;;8.17;4.60;;;;;;;6.53;100.00;94936.47;5132931;27;20839;-55
2024/01/03 10:52:23;;;;;;;3.43;3.07;;;;;;;5.91;100.00;94926.50;5126744;27;20822;-55
2024/01/03 10:54:57;;;;;;;3.97;3.50;;;;;;;6.28;100.00;94927.34;5106632;27;20446;-55
2024/01/03 10:57:32;;;;;;;5.63;4.73;;;;;;;6.44;100.00;94924.81;5133241;27;20446;-55
2024/01/03 11:00:12;;;;;;;3.30;1.67;;;;;;;6.74;100.00;94915.28;5133513;27;20455;-55
2024/01/03 11:02:50;;;;;;;1.00;1.00;;;;;;;6.65;100.00;94900.22;5127647;27;20435;-55
2024/01/03 11:05:26;;;;;;;3.63;2.50;;;;;;;6.32;100.00;94857.34;5126826;27;20945;-54
2024/01/03 11:08:00;;;;;;;2.30;2.20;;;;;;;6.96;100.00;94929.09;5132941;27;20502;-54
2024/01/03 11:10:48;;;;;;;9.40;1.80;;;;;;;7.20;100.00;94937.38;5132576;27;20482;-54
2024/01/03 11:13:28;;;;;;;2.53;1.23;;;;;;;7.28;100.00;94934.25;5133607;27;20438;-54
2024/01/03 11:15:58;;;;;;;6.23;1.87;;;;;;;7.09;100.00;94919.94;5108700;27;20438;-54
2024/01/03 11:18:53;;;;;;;2.87;2.77;;;;;;;7.33;100.00;94931.66;5133137;27;20438;-54
2024/01/03 11:21:42;;;;;;;4.20;2.33;;;;;;;7.39;100.00;94917.41;5114789;27;20481;-54
2024/01/03 11:24:58;;;;;;;6.10;4.40;;;;;;;7.15;100.00;94905.75;5110199;27;20434;-54
2024/01/03 11:27:28;;;;;;;3.13;1.70;;;;;;;7.36;100.00;94922.44;5110240;27;20942;-54
2024/01/03 11:29:58;;;;;;;9.13;3.17;;;;;;;7.25;100.00;94871.50;5132651;27;20477;-54
2024/01/03 11:32:29;;;;;;;5.87;3.00;;;;;;;7.42;100.00;94908.19;5132091;27;20439;-54
2024/01/03 11:35:08;;;;;;;1.87;1.63;;;;;;;7.55;100.00;94911.16;5131947;27;20483;-54
2024/01/03 11:37:40;;;;;;;3.23;3.03;;;;;;;7.59;100.00;94906.94;5132144;27;20436;-55
2024/01/03 11:40:19;;;;;;;3.70;1.07;;;;;;;7.58;100.00;94894.81;5105027;27;20467;-55
2024/01/03 11:42:56;;;;;;;1.70;1.60;;;;;;;7.66;100.00;94901.41;5132201;27;20821;-55
2024/01/03 11:45:27;;;;;;;1.40;1.30;;;;;;;7.88;100.00;94901.19;5132083;27;20458;-53
2024/01/03 11:47:57;;;;;;;9.73;2.87;;;;;;;7.79;100.00;94911.47;5131488;27;20434;-54